• Join FlightAware (Why Join?)
  • Login
  • US Flag 
08:14PM EST


 

Airport Tracker/Info


-or-


 

Live Flight TrackerFlight Track Log ✈ N449ND ✈ 05-Jul-2014 ✈ KFPR - KFPR

Flight Track Log - Related Links

Times and Time Zones

All times are in EDT time to prevent confusion due to time zone crossing. See the N449ND flight status page for this flight to view local times or setup timezone preferences in your user account.

Time Position Orientation Groundspeed Altitude Reporting Facility
EDT Latitude Longitude Course Direction KTS MPH feet Rate Location/Type
08:26PM 27.4967 -80.3689 152° Southeast 101 116 100  Level Miami Center
08:28PM 27.4903 -80.3439 106° East 83 96 800 600 Climbing Miami Center
08:29PM 27.4736 -80.3267 137° Southeast 81 93 1,400 540 Climbing Miami Center
08:30PM 27.4589 -80.3092 133° Southeast 81 93 1,900 540 Climbing Miami Center
08:31PM 27.4433 -80.2886 130° Southeast 81 93 2,500 480 Climbing Miami Center
08:32PM 27.4975 -80.3726 152° Southeast  Level Estimated
08:32PM 27.4258 -80.2972 204° Southwest 84 97 3,000  Level Miami Center
08:33PM 27.4258 -80.3289 270° West 102 117 3,000  Level Miami Center
08:34PM 27.4250 -80.3639 268° West 105 121 3,000  Level Miami Center
08:35PM 27.4244 -80.3994 269° West 107 123 3,000  Level Miami Center
08:36PM 27.4231 -80.4325 267° West 107 123 3,000  Level Miami Center
08:37PM 27.4222 -80.4678 268° West 107 123 3,000  Level Miami Center
08:38PM 27.4206 -80.5033 267° West 108 124 3,000  Level Miami Center
08:39PM 27.4203 -80.5356 269° West 107 123 3,000 -360 Level Miami Center
08:40PM 27.4472 -80.5531 330° Northwest 107 123 2,300 -540 Descending Miami Center
08:41PM 27.4781 -80.5628 344° North 111 128 2,000 -180 Descending Miami Center
08:42PM 27.4933 -80.5389 54° Northeast 99 114 2,000 -120 Level Miami Center
08:43PM 27.4983 -80.5092 79° East 97 112 1,800 -120 Descending Miami Center
08:44PM 27.4981 -80.4814 91° East 96 110 1,800 -300 Level Miami Center
08:45PM 27.4978 -80.4536 91° East 87 100 1,300 -480 Descending Miami Center
08:46PM 27.4972 -80.4256 91° East 86 99 900 -480 Descending Miami Center
08:47PM 27.4975 -80.3969 89° East 89 102 400 -120 Descending Miami Center
08:48PM 27.4925 -80.3658 100° East 100 115 700 420 Climbing Miami Center
08:49PM 27.4681 -80.3675 183° South 87 100 1,300 540 Climbing Miami Center
08:50PM 27.4453 -80.3692 184° South 85 98 1,900 480 Climbing Miami Center
08:51PM 27.4208 -80.3708 183° South 85 98 2,400 480 Climbing Miami Center
08:52PM 27.3961 -80.3736 186° South 85 98 2,900 300 Climbing Miami Center
08:53PM 27.3883 -80.3567 117° Southeast 104 120 3,100  Climbing Miami Center
08:54PM 27.4189 -80.3500 11° North 109 125 3,000  Descending Miami Center
08:55PM 27.4472 -80.3389 19° North 107 123 3,100  Climbing Miami Center
08:56PM 27.4656 -80.3136 51° Northeast 107 123 3,100 -60 Level Miami Center
08:57PM 27.4828 -80.2856 55° Northeast 107 123 3,000 -60 Descending Miami Center
08:58PM 27.5044 -80.2636 42° Northeast 103 119 3,000  Level Miami Center
08:59PM 27.5250 -80.2436 41° Northeast 103 119 3,100 -300 Climbing Miami Center
09:00PM 27.5525 -80.2308 22° Northeast 103 119 2,500 -600 Descending Miami Center
09:01PM 27.5750 -80.2125 36° Northeast 103 119 2,000 -300 Descending Miami Center
09:02PM 27.5939 -80.2369 311° West 116 133 1,900 -60 Descending Miami Center
09:03PM 27.6042 -80.2692 290° West 111 128 1,900  Level Miami Center
09:04PM 27.6144 -80.2997 291° West 103 119 1,900 -180 Level Miami Center
09:05PM 27.6247 -80.3283 292° West 103 119 1,600 -540 Descending Miami Center
09:06PM 27.6347 -80.3606 289° West 103 119 900 -540 Descending Miami Center
09:07PM 27.6450 -80.3903 291° West 100 115 600  Descending Miami Center
09:08PM 27.6544 -80.4181 291° West 99 114 900 420 Climbing Miami Center
09:09PM 27.6750 -80.4333 327° Northwest 103 119 1,500 540 Climbing Miami Center
09:10PM 27.7031 -80.4381 352° North 99 114 2,100 540 Climbing Miami Center
09:11PM 27.7258 -80.4269 23° Northeast 100 115 2,600 420 Climbing Miami Center
09:12PM 27.7425 -80.4031 52° Northeast 96 110 3,000 240 Climbing Miami Center
09:13PM 27.7628 -80.3769 49° Northeast 102 117 3,100  Climbing Miami Center
09:14PM 27.7811 -80.3508 52° Northeast 108 124 3,000  Descending Miami Center
09:15PM 27.7908 -80.3200 70° East 104 120 3,100  Climbing Miami Center
09:16PM 27.8097 -80.3172 North 107 123 3,100  Level Miami Center
09:17PM 27.7933 -80.3378 228° Southwest 93 107 3,100 -60 Level Miami Center
09:18PM 27.7728 -80.3439 195° South 95 109 3,000  Descending Miami Center
09:19PM 27.7878 -80.3206 54° Northeast 98 113 3,100  Climbing Miami Center
09:20PM 27.8111 -80.3175 North 107 123 3,100  Level Miami Center
09:21PM 27.7925 -80.3378 224° Southwest 98 113 3,100  Level Miami Center
09:22PM 27.7728 -80.3558 219° Southwest 96 110 3,100  Level Miami Center
09:23PM 27.7514 -80.3728 215° Southwest 93 107 3,100 -60 Level Miami Center
09:25PM 27.7308 -80.3925 220° Southwest 93 107 3,000  Descending Miami Center
09:26PM 27.7097 -80.4117 219° Southwest 96 110 3,100  Climbing Miami Center
09:27PM 27.6869 -80.4336 220° Southwest 99 114 3,000  Descending Miami Center
09:28PM 27.6636 -80.4553 219° Southwest 103 119 3,100  Climbing Miami Center
09:29PM 27.6417 -80.4758 220° Southwest 103 119 3,100 -60 Level Miami Center
09:30PM 27.6186 -80.4967 219° Southwest 103 119 3,000  Descending Miami Center
09:31PM 27.5975 -80.5169 220° Southwest 103 119 3,100  Climbing Miami Center
09:32PM 27.5744 -80.5392 221° Southwest 104 120 3,100  Level Miami Center
09:33PM 27.5511 -80.5603 219° Southwest 103 119 3,100  Level Miami Center
09:34PM 27.5294 -80.5808 220° Southwest 103 119 3,100 -60 Level Miami Center
09:35PM 27.5058 -80.6014 218° Southwest 103 119 3,000  Descending Miami Center
09:36PM 27.4828 -80.6228 219° Southwest 103 119 3,100  Climbing Miami Center
09:37PM 27.4625 -80.6422 220° Southwest 102 117 3,100  Level Miami Center
09:38PM 27.4400 -80.6642 221° Southwest 102 117 3,100 -60 Level Miami Center
09:39PM 27.4172 -80.6847 219° Southwest 102 117 3,000 -300 Descending Miami Center
09:40PM 27.3969 -80.7039 220° Southwest 101 116 2,500 -480 Descending Miami Center
09:41PM 27.4169 -80.7189 326° Northwest 114 131 2,100 -240 Descending Miami Center
09:42PM 27.4361 -80.6972 45° Northeast 103 119 2,100  Level Miami Center
09:43PM 27.4558 -80.6714 49° Northeast 103 119 2,100  Level Miami Center
09:44PM 27.4494 -80.6519 110° East 92 106 2,100  Level Miami Center
09:45PM 27.4286 -80.6683 215° Southwest 93 107 2,100  Level Miami Center
09:46PM 27.4089 -80.6894 224° Southwest 93 107 2,100 -180 Level Miami Center
09:47PM 27.3914 -80.7114 228° Southwest 91 105 1,800 -240 Descending Miami Center
09:48PM 27.3725 -80.7306 222° Southwest 91 105 1,700 -60 Descending Miami Center
09:49PM 27.3531 -80.7531 226° Southwest 95 109 1,700  Level Miami Center
09:50PM 27.3331 -80.7756 225° Southwest 95 109 1,700 -240 Level Miami Center
09:51PM 27.3161 -80.7950 226° Southwest 92 106 1,300 -480 Descending Miami Center
09:52PM 27.2983 -80.8147 225° Southwest 88 101 800 -420 Descending Miami Center
09:53PM 27.2794 -80.8364 226° Southwest 97 112 500  Descending Miami Center
09:54PM 27.2600 -80.8581 225° Southwest 98 113 900 480 Climbing Miami Center
09:55PM 27.2419 -80.8769 223° Southwest 90 104 1,500 540 Climbing Miami Center
09:56PM 27.2253 -80.8939 222° Southwest 87 100 2,000 240 Climbing Miami Center
09:57PM 27.2067 -80.9172 228° Southwest 94 108 2,000  Level Miami Center
09:58PM 27.1853 -80.9392 222° Southwest 96 110 2,100 180 Climbing Miami Center
09:59PM 27.1794 -80.9653 256° West 108 124 2,400 360 Climbing Miami Center
10:00PM 27.2000 -80.9531 28° Northeast 95 109 2,900 300 Climbing Miami Center
10:01PM 27.2136 -80.9272 59° Northeast 101 116 3,100  Climbing Miami Center
10:02PM 27.2294 -80.8967 60° Northeast 104 120 3,000  Descending Miami Center
10:03PM 27.2442 -80.8656 62° Northeast 106 122 3,100  Climbing Miami Center
10:04PM 27.2578 -80.8364 62° Northeast 106 122 3,100  Level Miami Center
10:05PM 27.2833 -80.8156 36° Northeast 107 123 3,100  Level Miami Center
10:06PM 27.3111 -80.7978 30° Northeast 108 124 3,100 -60 Level Miami Center
10:07PM 27.3381 -80.7800 30° Northeast 114 131 3,000 -60 Descending Miami Center
10:08PM 27.3672 -80.7633 27° Northeast 113 130 3,000  Level Miami Center
10:09PM 27.3947 -80.7458 29° Northeast 112 129 3,000  Level Miami Center
10:10PM 27.4206 -80.7303 28° Northeast 111 128 3,000  Level Miami Center
10:11PM 27.4489 -80.7128 29° Northeast 111 128 3,000 -60 Level Miami Center
10:12PM 27.4728 -80.6908 39° Northeast 111 128 2,900 -480 Descending Miami Center
10:13PM 27.4875 -80.6636 59° Northeast 103 119 2,100 -480 Descending Miami Center
10:14PM 27.4997 -80.6319 66° East 104 120 2,000 -60 Descending Miami Center
10:15PM 27.4992 -80.6039 91° East 96 110 2,000 -120 Level Miami Center
10:16PM 27.4983 -80.5706 92° East 99 114 1,800 -120 Descending Miami Center
10:17PM 27.4983 -80.5403 90° East 98 113 1,800  Level Miami Center
10:19PM 27.4884 -80.5541 231° Southwest  Level FlightAware Approximate
10:26PM 27.4239 -80.6404 230° Southwest  Level Estimated
10:27PM 27.4147 -80.6527 230° Southwest  Level FlightAware Approximate
10:28PM 27.4055 -80.6650 230° Southwest  Level FlightAware Approximate
10:29PM 27.3962 -80.6774 230° Southwest  Level FlightAware Approximate
10:30PM 27.3870 -80.6897 230° Southwest  Level FlightAware Approximate
10:31PM 27.3778 -80.7020 230° Southwest  Level FlightAware Approximate
10:32PM 27.3685 -80.7143 222° Southwest  Level Estimated
10:33PM 27.3584 -80.7257 225° Southwest  Level FlightAware Approximate
10:34PM 27.3483 -80.7371 225° Southwest  Level FlightAware Approximate